Terminal Aerodrome Forecast
Issued by NWS

Home | Current Version | Previous Version | Text Only | Print | Product List | Glossary On
Versions: 1 2 3 4 5 6 7 8 9 10 11 12 13 14
000
FTUS45 KRIW 161100
TAFRKS
TAF
KRKS 161125Z 1612/1712 29012KT P6SM SCT250
     FM161700 29012G18KT P6SM SCT080 BKN150
     FM170100 30009KT P6SM SCT070 BKN150
     FM170500 VRB05KT P6SM SCT120 BKN250=

USA.gov is the U.S. government's official web portal to all federal, state and local government web resources and services.